Terminal Aerodrome Forecast
Issued by NWS Corpus Christi, TX

Home | Current Version | Previous Version | Text Only | Print | Product List | Glossary On
Versions: 1 2 3 4 5 6 7 8 9 10 11 12 13 14 15
000
FTUS44 KCRP 231750 CCB
TAFCRP
TAF COR
KCRP 231750Z 2318/2418 VRB04KT P6SM VCTS SCT035CB
     FM232000 11014G18KT P6SM SCT040
     FM240300 16012KT P6SM SCT015 BKN250
     FM240900 VRB03KT P6SM VCSH BKN015
     FM241400 02009KT P6SM SCT025 PROB30 2414/2418 5SM TSRA
      BKN025CB=

USA.gov is the U.S. government's official web portal to all federal, state and local government web resources and services.